N31B KBUR-KSEZ
Flight info
| Callsign | N31B |
|---|---|
| Flight time | N/A |
| Altitude | 37000 |
| Route | SLAPP2 HEC EED J6 DRK |
| Aircraft | C510/L-SDFGRWY/LB1 |
Departure
| Time | N/A |
|---|---|
| Airport | Hollywood Burbank/Bob Hope Airport (KBUR) |
Arrival
| Time | 2026-04-22 01:59 |
|---|---|
| Airport | Sedona Airport (KSEZ) |
| Time | Latitude | Longitude | Altitude | Speed | Heading |
|---|---|---|---|---|---|
| 2026-04-22 01:36 | 34.72631 | -114.09805 | 30724 ft | 397 kts | 97° |
| 2026-04-22 01:36 | 34.72603 | -114.06445 | 30723 ft | 397 kts | 97° |
| 2026-04-22 01:36 | 34.72545 | -113.99778 | 30725 ft | 397 kts | 97° |
| 2026-04-22 01:37 | 34.72484 | -113.93056 | 30731 ft | 396 kts | 97° |
| 2026-04-22 01:37 | 34.72419 | -113.86345 | 30735 ft | 396 kts | 97° |
| 2026-04-22 01:38 | 34.72350 | -113.79636 | 30737 ft | 396 kts | 97° |
| 2026-04-22 01:38 | 34.72279 | -113.72999 | 30740 ft | 395 kts | 97° |
| 2026-04-22 01:39 | 34.72237 | -113.66335 | 30746 ft | 394 kts | 95° |
| 2026-04-22 01:39 | 34.72494 | -113.59658 | 30747 ft | 396 kts | 91° |
| 2026-04-22 01:40 | 34.72724 | -113.52973 | 30749 ft | 395 kts | 93° |
| 2026-04-22 01:40 | 34.72959 | -113.46290 | 30758 ft | 396 kts | 92° |
| 2026-04-22 01:41 | 34.73187 | -113.39628 | 30878 ft | 392 kts | 92° |
| 2026-04-22 01:41 | 34.73406 | -113.32969 | 30355 ft | 407 kts | 92° |
| 2026-04-22 01:42 | 34.73523 | -113.29481 | 29789 ft | 418 kts | 92° |
| 2026-04-22 01:42 | 34.73643 | -113.25919 | 29210 ft | 423 kts | 92° |
| 2026-04-22 01:42 | 34.73762 | -113.22339 | 28651 ft | 425 kts | 92° |
| 2026-04-22 01:42 | 34.73878 | -113.18742 | 28091 ft | 425 kts | 92° |
| 2026-04-22 01:43 | 34.73994 | -113.15155 | 27533 ft | 424 kts | 92° |
| 2026-04-22 01:43 | 34.74106 | -113.11588 | 26985 ft | 422 kts | 92° |
| 2026-04-22 01:43 | 34.74218 | -113.08068 | 26434 ft | 420 kts | 91° |
| 2026-04-22 01:43 | 34.74329 | -113.04528 | 25890 ft | 417 kts | 92° |
| 2026-04-22 01:44 | 34.74438 | -113.01008 | 25341 ft | 414 kts | 91° |
| 2026-04-22 01:44 | 34.74545 | -112.97526 | 24799 ft | 411 kts | 92° |
| 2026-04-22 01:44 | 34.74649 | -112.94071 | 24265 ft | 407 kts | 92° |
| 2026-04-22 01:44 | 34.74752 | -112.90639 | 23733 ft | 404 kts | 91° |
| 2026-04-22 01:45 | 34.74854 | -112.87239 | 23165 ft | 400 kts | 92° |
| 2026-04-22 01:45 | 34.74920 | -112.85004 | 22805 ft | 396 kts | 92° |
| 2026-04-22 01:45 | 34.75018 | -112.81680 | 22301 ft | 391 kts | 92° |
| 2026-04-22 01:45 | 34.75144 | -112.77342 | 21651 ft | 385 kts | 92° |
| 2026-04-22 01:46 | 34.75237 | -112.74103 | 21164 ft | 380 kts | 92° |
| 2026-04-22 01:46 | 34.75298 | -112.71939 | 20840 ft | 378 kts | 92° |
| 2026-04-22 01:46 | 34.75389 | -112.68768 | 20365 ft | 374 kts | 92° |
| 2026-04-22 01:46 | 34.75476 | -112.65621 | 19889 ft | 370 kts | 92° |
| 2026-04-22 01:47 | 34.75561 | -112.62550 | 19424 ft | 366 kts | 92° |
| 2026-04-22 01:47 | 34.75646 | -112.59473 | 18961 ft | 361 kts | 92° |
| 2026-04-22 01:47 | 34.75729 | -112.56440 | 18502 ft | 357 kts | 92° |
| 2026-04-22 01:47 | 34.75810 | -112.53438 | 17947 ft | 353 kts | 92° |
| 2026-04-22 01:48 | 34.75890 | -112.50471 | 17461 ft | 347 kts | 92° |
| 2026-04-22 01:48 | 34.75967 | -112.47562 | 17013 ft | 341 kts | 92° |
| 2026-04-22 01:48 | 34.76043 | -112.44704 | 16573 ft | 336 kts | 92° |
| 2026-04-22 01:48 | 34.76115 | -112.41884 | 16136 ft | 332 kts | 92° |
| 2026-04-22 01:49 | 34.76187 | -112.39086 | 15698 ft | 329 kts | 92° |
| 2026-04-22 01:49 | 34.76257 | -112.36309 | 15261 ft | 328 kts | 92° |
| 2026-04-22 01:49 | 34.76328 | -112.33540 | 14822 ft | 327 kts | 92° |
| 2026-04-22 01:49 | 34.76397 | -112.30773 | 14383 ft | 327 kts | 92° |
| 2026-04-22 01:50 | 34.76466 | -112.28014 | 13943 ft | 327 kts | 92° |
| 2026-04-22 01:50 | 34.76533 | -112.25288 | 13486 ft | 326 kts | 92° |
| 2026-04-22 01:50 | 34.76595 | -112.22536 | 13032 ft | 323 kts | 94° |
| 2026-04-22 01:50 | 34.76312 | -112.19871 | 12595 ft | 314 kts | 109° |
| 2026-04-22 01:51 | 34.75594 | -112.17398 | 12176 ft | 307 kts | 120° |
| 2026-04-22 01:51 | 34.74555 | -112.15294 | 11787 ft | 267 kts | 132° |
| 2026-04-22 01:51 | 34.73463 | -112.13598 | 11479 ft | 246 kts | 133° |
| 2026-04-22 01:51 | 34.72459 | -112.11978 | 11178 ft | 235 kts | 133° |
| 2026-04-22 01:52 | 34.71483 | -112.10420 | 10897 ft | 228 kts | 134° |
| 2026-04-22 01:52 | 34.70523 | -112.08908 | 10597 ft | 223 kts | 134° |
| 2026-04-22 01:52 | 34.69596 | -112.07442 | 10308 ft | 220 kts | 133° |
| 2026-04-22 01:52 | 34.68710 | -112.06000 | 10034 ft | 205 kts | 130° |
| 2026-04-22 01:53 | 34.68115 | -112.04455 | 9760 ft | 200 kts | 114° |
| 2026-04-22 01:53 | 34.67873 | -112.02787 | 9498 ft | 205 kts | 99° |
| 2026-04-22 01:53 | 34.68017 | -112.01038 | 9231 ft | 210 kts | 82° |
| 2026-04-22 01:53 | 34.68555 | -111.99382 | 8982 ft | 213 kts | 64° |
| 2026-04-22 01:54 | 34.69452 | -111.97966 | 8774 ft | 209 kts | 47° |
| 2026-04-22 01:54 | 34.70472 | -111.96750 | 8595 ft | 203 kts | 48° |
| 2026-04-22 01:54 | 34.71429 | -111.95532 | 8427 ft | 201 kts | 48° |
| 2026-04-22 01:54 | 34.72407 | -111.94326 | 8173 ft | 201 kts | 47° |
| 2026-04-22 01:55 | 34.73406 | -111.93083 | 7767 ft | 210 kts | 47° |
| 2026-04-22 01:55 | 34.74410 | -111.91839 | 7473 ft | 201 kts | 47° |
| 2026-04-22 01:55 | 34.75368 | -111.90653 | 7237 ft | 193 kts | 47° |
| 2026-04-22 01:55 | 34.76291 | -111.89507 | 6993 ft | 187 kts | 49° |
| 2026-04-22 01:56 | 34.77191 | -111.88387 | 6756 ft | 179 kts | 47° |
| 2026-04-22 01:56 | 34.78018 | -111.87358 | 6550 ft | 161 kts | 48° |
| 2026-04-22 01:56 | 34.78763 | -111.86442 | 6354 ft | 149 kts | 50° |
| 2026-04-22 01:56 | 34.79487 | -111.85533 | 6160 ft | 151 kts | 48° |
| 2026-04-22 01:57 | 34.80229 | -111.84616 | 5892 ft | 149 kts | 50° |
| 2026-04-22 01:57 | 34.80950 | -111.83696 | 5661 ft | 151 kts | 48° |
| 2026-04-22 01:57 | 34.81678 | -111.82781 | 5359 ft | 152 kts | 47° |
| 2026-04-22 01:57 | 34.82419 | -111.81910 | 5254 ft | 143 kts | 49° |
| 2026-04-22 01:58 | 34.83099 | -111.81048 | 5104 ft | 141 kts | 51° |
| 2026-04-22 01:58 | 34.83768 | -111.80204 | 4916 ft | 136 kts | 53° |
| 2026-04-22 01:58 | 34.84413 | -111.79397 | 4769 ft | 130 kts | 52° |
| 2026-04-22 01:58 | 34.84925 | -111.78756 | 4790 ft | 54 kts | 44° |
| 2026-04-22 01:59 | 34.84999 | -111.78682 | 4797 ft | 4 kts | 3° |
| 2026-04-22 01:59 | 34.85014 | -111.78687 | 4798 ft | 1 kts | 317° |
| 2026-04-22 01:59 | 34.85030 | -111.78706 | 4798 ft | 7 kts | 317° |
| 2026-04-22 01:59 | 34.85037 | -111.78711 | 4798 ft | 1 kts | 342° |
| 2026-04-22 02:00 | 34.85059 | -111.78708 | 4799 ft | 3 kts | 357° |
| 2026-04-22 02:00 | 34.85075 | -111.78718 | 4799 ft | 4 kts | 316° |
| 2026-04-22 02:00 | 34.85081 | -111.78726 | 4800 ft | 2 kts | 315° |
| 2026-04-22 02:00 | 34.85082 | -111.78726 | 4800 ft | 0 kts | 315° |